Time;durP1;ratioP1;P1;durP2;ratioP2;P2;SDS_P1;SDS_P2;PMS_P1;PMS_P2;Temp;Humidity;BMP_temperature;BMP_pressure;BME280_temperature;BME280_humidity;BME280_pressure;Samples;Min_cycle;Max_cycle;Signal;HPM_P1;HPM_P2
2024/02/13 00:01:19;;;;;;;13.13;2.72;;;6.20;1.00;;;;;;7378214;19;20083;-72
2024/02/13 00:03:50;;;;;;;10.02;2.50;;;6.20;1.00;;;;;;7377527;19;20769;-72
2024/02/13 00:06:20;;;;;;;5.72;2.10;;;6.20;1.00;;;;;;7377986;19;20030;-71
2024/02/13 00:08:50;;;;;;;6.85;2.30;;;6.10;1.00;;;;;;7379017;19;20013;-71
2024/02/13 00:11:21;;;;;;;6.95;2.70;;;6.10;1.00;;;;;;7379258;19;20010;-71
2024/02/13 00:13:51;;;;;;;7.97;2.83;;;6.10;1.00;;;;;;7376770;19;20030;-71
2024/02/13 00:16:25;;;;;;;7.50;2.60;;;6.00;1.00;;;;;;7376795;19;20011;-71
2024/02/13 00:19:01;;;;;;;9.77;2.47;;;6.00;1.00;;;;;;7378522;19;20007;-71
2024/02/13 00:21:33;;;;;;;6.05;2.30;;;6.00;1.00;;;;;;7379044;19;20011;-71
2024/02/13 00:24:03;;;;;;;5.57;2.10;;;6.00;1.00;;;;;;7377277;19;20010;-71
2024/02/13 00:26:34;;;;;;;7.40;2.50;;;6.20;1.00;;;;;;7377269;19;20011;-71
2024/02/13 00:29:04;;;;;;;6.85;2.85;;;6.20;1.00;;;;;;7380053;19;20027;-72
2024/02/13 00:31:38;;;;;;;9.68;2.15;;;6.20;1.00;;;;;;7378768;19;20006;-72
2024/02/13 00:34:29;;;;;;;7.93;2.57;;;6.20;1.00;;;;;;6867876;19;2003728;-71
2024/02/13 00:37:01;;;;;;;8.48;2.60;;;6.30;1.00;;;;;;7376191;19;20243;-71
2024/02/13 00:39:32;;;;;;;6.15;2.00;;;6.30;1.00;;;;;;7377948;19;20002;-70
2024/02/13 00:42:02;;;;;;;7.13;2.08;;;6.30;1.00;;;;;;7380428;19;20017;-71
2024/02/13 00:44:35;;;;;;;8.05;2.03;;;6.30;1.00;;;;;;7376975;19;20770;-71
2024/02/13 00:47:08;;;;;;;6.50;2.33;;;6.30;1.00;;;;;;7377364;19;20007;-71
2024/02/13 00:49:38;;;;;;;6.30;1.70;;;6.30;1.00;;;;;;7369924;19;20007;-71
2024/02/13 00:52:09;;;;;;;5.05;1.85;;;6.30;1.00;;;;;;7376377;19;20014;-71
2024/02/13 00:54:39;;;;;;;7.95;2.00;;;6.30;1.00;;;;;;7377150;19;20043;-72
2024/02/13 00:57:10;;;;;;;6.57;2.10;;;6.30;1.00;;;;;;7374838;19;20007;-72
2024/02/13 00:59:42;;;;;;;12.05;2.42;;;6.40;1.00;;;;;;7376973;19;20024;-71
2024/02/13 01:02:17;;;;;;;7.43;2.03;;;6.40;1.00;;;;;;7374499;19;20097;-71
2024/02/13 01:04:47;;;;;;;6.10;1.75;;;6.40;1.00;;;;;;7377698;19;20415;-71
2024/02/13 01:07:18;;;;;;;8.93;1.92;;;6.40;1.00;;;;;;7376526;19;20031;-71
2024/02/13 01:09:49;;;;;;;5.93;2.00;;;6.40;1.00;;;;;;7376946;19;20003;-71
2024/02/13 01:12:19;;;;;;;5.35;2.10;;;6.40;1.00;;;;;;7376480;19;20021;-71
2024/02/13 01:14:49;;;;;;;7.95;1.98;;;6.40;1.00;;;;;;7376140;19;20045;-72
2024/02/13 01:17:22;;;;;;;10.27;2.33;;;6.40;1.00;;;;;;7375108;19;20002;-72
2024/02/13 01:19:52;;;;;;;6.10;2.08;;;6.40;1.00;;;;;;7377653;19;20019;-72
2024/02/13 01:22:23;;;;;;;7.38;2.45;;;6.40;1.00;;;;;;7382353;19;20015;-72
2024/02/13 01:24:55;;;;;;;5.60;2.10;;;6.40;1.00;;;;;;7382012;19;20021;-72
2024/02/13 01:27:26;;;;;;;4.93;1.75;;;6.40;1.00;;;;;;7381587;19;20018;-72
2024/02/13 01:29:56;;;;;;;9.20;2.05;;;6.40;1.00;;;;;;7383692;19;20093;-71
2024/02/13 01:32:29;;;;;;;9.77;2.70;;;6.40;1.00;;;;;;7381947;19;20503;-71
2024/02/13 01:34:59;;;;;;;10.00;2.40;;;6.40;1.00;;;;;;7382275;19;20057;-71
2024/02/13 01:37:29;;;;;;;8.32;2.30;;;6.30;1.00;;;;;;7382774;19;20014;-72
2024/02/13 01:40:00;;;;;;;7.28;2.10;;;6.30;1.00;;;;;;7383397;19;20082;-71
2024/02/13 01:42:31;;;;;;;9.85;2.63;;;6.20;1.00;;;;;;7380528;19;20343;-72
2024/02/13 01:45:01;;;;;;;7.10;2.03;;;6.20;1.00;;;;;;7381618;19;20014;-71
2024/02/13 01:47:37;;;;;;;5.45;2.17;;;6.30;1.00;;;;;;7383440;19;20479;-72
2024/02/13 01:50:08;;;;;;;7.07;2.33;;;6.20;1.00;;;;;;7383703;19;20532;-71
2024/02/13 01:52:40;;;;;;;6.10;1.90;;;6.30;1.00;;;;;;7379840;19;20026;-71
2024/02/13 01:55:13;;;;;;;7.85;2.58;;;6.30;1.00;;;;;;7380965;19;20006;-71
2024/02/13 01:57:43;;;;;;;7.43;2.30;;;6.20;1.00;;;;;;7380641;19;20086;-72
2024/02/13 02:00:16;;;;;;;9.13;2.33;;;6.20;1.00;;;;;;7381781;19;20022;-72
2024/02/13 02:02:51;;;;;;;5.10;1.98;;;6.20;1.00;;;;;;7380203;19;20714;-71
2024/02/13 02:05:21;;;;;;;8.25;2.30;;;6.20;1.00;;;;;;7378794;19;20021;-71
2024/02/13 02:08:10;;;;;;;11.00;2.78;;;6.20;1.00;;;;;;7376676;19;20486;-72
2024/02/13 02:10:42;;;;;;;4.72;1.95;;;6.20;1.00;;;;;;7381465;19;20014;-71
2024/02/13 02:13:14;;;;;;;6.88;2.53;;;6.20;1.00;;;;;;7378872;19;20029;-71
2024/02/13 02:15:53;;;;;;;10.95;2.35;;;6.10;1.00;;;;;;7379767;19;20018;-71
2024/02/13 02:18:26;;;;;;;8.20;3.05;;;6.10;1.00;;;;;;7381511;19;20605;-71
2024/02/13 02:20:57;;;;;;;9.57;2.72;;;6.00;1.00;;;;;;7381606;19;20006;-71
2024/02/13 02:23:28;;;;;;;7.72;2.22;;;6.00;1.00;;;;;;7379781;19;20011;-71
2024/02/13 02:26:12;;;;;;;9.38;2.67;;;5.90;1.00;;;;;;7380943;19;20090;-72
2024/02/13 02:29:03;;;;;;;7.13;2.80;;;5.80;1.00;;;;;;6867913;19;2004635;-72
2024/02/13 02:31:33;;;;;;;7.80;2.22;;;5.70;1.00;;;;;;7379552;19;20006;-71
2024/02/13 02:34:04;;;;;;;7.35;2.30;;;5.50;1.00;;;;;;7380310;19;20007;-71
2024/02/13 02:36:34;;;;;;;5.82;2.17;;;5.50;1.00;;;;;;7378502;19;20010;-71
2024/02/13 02:39:05;;;;;;;7.20;2.20;;;5.40;1.00;;;;;;7381031;19;20011;-71
2024/02/13 02:41:38;;;;;;;9.05;2.25;;;5.30;1.00;;;;;;7380416;19;20067;-71
2024/02/13 02:44:08;;;;;;;10.75;3.00;;;5.30;1.00;;;;;;7376500;19;20011;-71
2024/02/13 02:46:39;;;;;;;8.65;2.13;;;5.20;1.00;;;;;;7376711;19;20031;-71
2024/02/13 02:49:09;;;;;;;7.38;2.30;;;5.20;1.00;;;;;;7376773;19;20010;-71
2024/02/13 02:51:39;;;;;;;10.57;2.83;;;5.10;1.00;;;;;;7379306;19;20015;-71
2024/02/13 02:54:09;;;;;;;11.23;2.92;;;5.10;1.00;;;;;;7379512;19;20022;-71
2024/02/13 02:56:43;;;;;;;8.63;2.60;;;5.00;1.00;;;;;;7378626;19;20028;-70
2024/02/13 02:59:14;;;;;;;10.20;2.88;;;4.90;1.00;;;;;;7376513;19;20006;-71
2024/02/13 03:01:46;;;;;;;9.50;2.63;;;4.90;1.00;;;;;;7379404;19;20025;-71
2024/02/13 03:04:17;;;;;;;6.28;2.40;;;4.80;1.00;;;;;;7378223;19;20017;-71
2024/02/13 03:06:47;;;;;;;6.65;2.42;;;4.80;1.00;;;;;;7379501;19;20078;-71
2024/02/13 03:09:18;;;;;;;10.95;2.75;;;4.80;1.00;;;;;;7380865;19;20019;-71
2024/02/13 03:11:50;;;;;;;7.50;2.53;;;4.70;1.00;;;;;;7380827;19;20007;-71
2024/02/13 03:14:21;;;;;;;6.93;2.72;;;4.70;1.00;;;;;;7385207;19;20105;-71
2024/02/13 03:16:51;;;;;;;6.10;2.75;;;4.70;1.00;;;;;;7383633;19;20035;-71
2024/02/13 03:19:21;;;;;;;13.38;3.00;;;4.60;1.00;;;;;;7380153;19;20010;-71
2024/02/13 03:21:51;;;;;;;8.35;2.28;;;4.60;1.00;;;;;;7380291;19;20019;-71
2024/02/13 03:24:21;;;;;;;9.38;3.08;;;4.50;1.00;;;;;;7378475;19;20558;-71
2024/02/13 03:26:55;;;;;;;7.13;2.42;;;4.50;1.00;;;;;;7379471;19;20010;-71
2024/02/13 03:29:45;;;;;;;10.13;2.95;;;4.50;1.00;;;;;;7373269;19;20010;-71
2024/02/13 03:32:15;;;;;;;8.45;2.30;;;4.50;1.00;;;;;;7376917;19;20017;-71
2024/02/13 03:34:46;;;;;;;8.40;2.97;;;4.50;1.00;;;;;;7378631;19;20010;-71
2024/02/13 03:37:16;;;;;;;10.93;3.30;;;4.50;1.00;;;;;;7375234;19;20054;-71
2024/02/13 03:39:46;;;;;;;7.57;2.75;;;4.50;1.00;;;;;;7378584;19;20379;-71
2024/02/13 03:42:19;;;;;;;10.20;3.15;;;4.60;1.00;;;;;;7375368;19;20375;-71
2024/02/13 03:44:49;;;;;;;11.02;3.75;;;4.60;1.00;;;;;;7377764;19;20106;-71
2024/02/13 03:47:20;;;;;;;8.63;3.45;;;4.60;1.00;;;;;;7378102;19;20727;-71
2024/02/13 03:49:50;;;;;;;7.07;2.97;;;4.60;1.00;;;;;;7378674;19;20014;-72
2024/02/13 03:52:20;;;;;;;7.07;2.97;;;4.60;1.00;;;;;;7377942;19;20082;-71
2024/02/13 03:54:50;;;;;;;11.38;3.50;;;4.60;1.00;;;;;;7377227;19;20471;-72
2024/02/13 03:57:23;;;;;;;10.10;3.13;;;4.60;1.00;;;;;;7377248;19;20020;-71
2024/02/13 03:59:53;;;;;;;12.77;3.50;;;4.60;1.00;;;;;;7379750;19;20041;-71
2024/02/13 04:02:24;;;;;;;6.03;2.55;;;4.70;1.00;;;;;;7374703;19;20074;-71
2024/02/13 04:04:54;;;;;;;9.23;3.28;;;4.70;1.00;;;;;;7378204;19;20014;-72
2024/02/13 04:07:25;;;;;;;8.07;3.17;;;4.70;1.00;;;;;;7378864;19;20003;-71
2024/02/13 04:09:55;;;;;;;11.05;3.55;;;4.80;1.00;;;;;;7377341;19;20017;-72
2024/02/13 04:12:28;;;;;;;7.88;3.08;;;4.80;1.00;;;;;;7376645;19;20471;-71
2024/02/13 04:14:59;;;;;;;13.27;2.87;;;4.80;1.00;;;;;;7377230;19;20035;-71
2024/02/13 04:17:31;;;;;;;10.75;2.97;;;4.90;1.00;;;;;;7376085;19;20035;-71
2024/02/13 04:20:03;;;;;;;14.93;3.65;;;4.90;1.00;;;;;;7376857;19;21081;-71
2024/02/13 04:22:34;;;;;;;10.23;3.17;;;4.90;1.00;;;;;;7377013;19;20006;-71
2024/02/13 04:25:05;;;;;;;10.07;2.90;;;4.90;1.00;;;;;;7376443;19;20478;-71
2024/02/13 04:27:39;;;;;;;12.95;3.65;;;4.90;1.00;;;;;;7378272;19;20090;-71
2024/02/13 04:30:13;;;;;;;7.18;3.30;;;4.90;1.00;;;;;;7372447;19;20011;-70
2024/02/13 04:32:44;;;;;;;11.85;3.28;;;5.00;1.00;;;;;;7372420;19;20014;-71
2024/02/13 04:35:14;;;;;;;9.10;3.20;;;5.10;1.00;;;;;;7376159;19;20021;-72
2024/02/13 04:37:44;;;;;;;12.88;3.53;;;5.10;1.00;;;;;;7376680;19;20054;-72
2024/02/13 04:40:16;;;;;;;8.35;3.10;;;5.00;1.00;;;;;;7376449;19;20006;-71
2024/02/13 04:43:09;;;;;;;8.60;3.33;;;5.10;1.00;;;;;;7376347;19;20011;-71
2024/02/13 04:45:39;;;;;;;5.60;3.13;;;5.10;1.00;;;;;;7375948;19;20505;-71
2024/02/13 04:48:13;;;;;;;13.30;3.38;;;5.20;1.00;;;;;;7374139;19;20561;-70
2024/02/13 04:50:43;;;;;;;8.10;2.90;;;5.20;1.00;;;;;;7370495;19;20015;-71
2024/02/13 04:53:15;;;;;;;9.93;3.58;;;5.30;1.00;;;;;;7376683;19;20011;-71
2024/02/13 04:55:45;;;;;;;6.43;3.45;;;5.30;1.00;;;;;;7372351;19;20578;-71
2024/02/13 04:58:20;;;;;;;11.18;3.40;;;5.40;1.00;;;;;;7383080;19;20014;-72
2024/02/13 05:00:51;;;;;;;14.05;3.30;;;5.50;1.00;;;;;;7381802;19;20002;-71
2024/02/13 05:03:39;;;;;;;9.40;3.35;;;5.50;1.00;;;;;;7380255;19;20013;-72
2024/02/13 05:08:55;;;;;;;5.82;3.35;;;5.60;1.00;;;;;;7375017;19;20078;-71
2024/02/13 05:11:26;;;;;;;3.58;2.33;;;5.70;1.00;;;;;;7381187;19;20478;-71
2024/02/13 05:14:00;;;;;;;6.30;2.85;;;5.70;1.00;;;;;;7383033;19;20010;-71
2024/02/13 05:16:31;;;;;;;6.20;2.80;;;5.70;1.00;;;;;;7382454;19;20029;-72
2024/02/13 05:19:01;;;;;;;7.07;2.83;;;5.70;1.00;;;;;;7381117;19;20090;-71
2024/02/13 05:21:34;;;;;;;3.88;2.53;;;5.70;1.00;;;;;;7380230;19;20467;-71
2024/02/13 05:24:06;;;;;;;8.55;3.20;;;5.80;1.00;;;;;;7378625;19;20018;-71
2024/02/13 05:26:36;;;;;;;5.65;2.75;;;5.80;1.00;;;;;;7379041;19;20029;-73
2024/02/13 05:29:09;;;;;;;8.80;3.20;;;5.80;1.00;;;;;;7383330;19;20017;-73
2024/02/13 05:31:41;;;;;;;5.13;2.50;;;5.80;1.00;;;;;;7381001;19;20006;-72
2024/02/13 05:34:11;;;;;;;6.10;2.85;;;5.80;1.00;;;;;;7382359;19;20029;-71
2024/02/13 05:36:43;;;;;;;10.43;3.10;;;5.80;1.00;;;;;;7384016;19;20013;-71
2024/02/13 05:39:14;;;;;;;5.15;2.83;;;5.80;1.00;;;;;;7383134;19;20482;-71
2024/02/13 05:41:45;;;;;;;8.40;3.17;;;5.80;1.00;;;;;;7384735;19;20519;-71
2024/02/13 05:44:18;;;;;;;7.88;2.47;;;5.80;1.00;;;;;;7380428;19;20014;-71
2024/02/13 05:46:48;;;;;;;9.32;3.38;;;5.80;1.00;;;;;;7385019;19;20007;-71
2024/02/13 05:49:18;;;;;;;8.20;4.38;;;5.80;1.00;;;;;;7385267;19;20034;-72
2024/02/13 05:51:49;;;;;;;10.32;4.40;;;5.70;1.00;;;;;;7384368;19;20094;-73
2024/02/13 05:54:19;;;;;;;19.58;7.07;;;5.80;1.00;;;;;;7382090;19;20353;-72
2024/02/13 05:56:49;;;;;;;15.05;6.63;;;5.70;1.00;;;;;;7380384;19;20121;-72
2024/02/13 05:59:25;;;;;;;12.05;6.30;;;5.70;1.00;;;;;;7381758;19;20089;-72
2024/02/13 06:01:56;;;;;;;12.90;6.60;;;5.70;1.00;;;;;;7381997;19;20026;-72
2024/02/13 06:04:26;;;;;;;13.10;5.60;;;5.70;1.00;;;;;;7381425;19;20475;-72
2024/02/13 06:06:59;;;;;;;16.73;5.65;;;5.80;1.00;;;;;;7382353;19;20921;-70
2024/02/13 06:09:30;;;;;;;14.50;5.82;;;5.80;1.00;;;;;;7381739;19;20483;-71
2024/02/13 06:12:00;;;;;;;12.35;4.60;;;5.80;1.00;;;;;;7380296;19;20004;-71
2024/02/13 06:14:33;;;;;;;10.60;4.50;;;5.70;1.00;;;;;;7380704;19;20014;-72
2024/02/13 06:17:04;;;;;;;13.40;5.22;;;5.80;1.00;;;;;;7379239;19;20369;-72
2024/02/13 06:19:34;;;;;;;12.63;5.57;;;5.80;1.00;;;;;;7380682;19;20097;-71
2024/02/13 06:22:04;;;;;;;8.60;4.10;;;5.80;1.00;;;;;;7379508;19;20025;-71
2024/02/13 06:24:34;;;;;;;9.82;3.83;;;5.80;1.00;;;;;;7379051;19;20534;-71
2024/02/13 06:27:05;;;;;;;11.02;4.82;;;5.80;1.00;;;;;;7380453;19;20372;-73
2024/02/13 06:29:38;;;;;;;6.18;3.70;;;5.80;1.00;;;;;;7380658;19;20018;-71
2024/02/13 06:32:09;;;;;;;10.52;3.97;;;5.80;1.00;;;;;;7378500;19;20035;-71
2024/02/13 06:34:39;;;;;;;7.47;3.30;;;5.80;1.00;;;;;;7379125;19;20014;-71
2024/02/13 06:37:10;;;;;;;8.45;4.05;;;5.80;1.00;;;;;;7379267;19;20014;-71
2024/02/13 06:39:40;;;;;;;11.57;3.80;;;5.80;1.00;;;;;;7379603;19;20011;-72
2024/02/13 06:42:11;;;;;;;12.23;5.15;;;5.80;1.00;;;;;;7378409;19;20105;-72
2024/02/13 06:44:44;;;;;;;11.43;5.85;;;5.80;1.00;;;;;;7379215;19;20027;-72
2024/02/13 06:47:15;;;;;;;12.18;5.43;;;5.80;1.00;;;;;;7381129;19;19999;-73
2024/02/13 06:49:45;;;;;;;8.70;3.83;;;5.90;1.00;;;;;;7381176;19;20643;-71
2024/02/13 06:52:15;;;;;;;13.07;3.60;;;5.90;1.00;;;;;;7381726;19;20115;-71
2024/02/13 06:54:45;;;;;;;9.50;3.20;;;5.90;1.00;;;;;;7377639;19;20018;-72
2024/02/13 06:57:19;;;;;;;8.82;3.40;;;5.90;1.00;;;;;;7378246;19;20698;-72
2024/02/13 06:59:53;;;;;;;3.80;2.42;;;5.90;1.00;;;;;;7379122;19;20017;-72
2024/02/13 07:02:25;;;;;;;;;;;5.90;1.00;;;;;;7380225;19;20463;-72
2024/02/13 07:04:55;;;;;;;7.88;3.33;;;5.90;1.00;;;;;;7379830;19;19936;-71
2024/02/13 07:07:25;;;;;;;6.05;3.10;;;5.90;1.00;;;;;;7378887;19;20022;-71
2024/02/13 07:10:12;;;;;;;5.65;3.17;;;5.90;1.00;;;;;;7376804;19;20007;-71
2024/02/13 07:12:58;;;;;;;9.88;4.00;;;5.90;1.00;;;;;;7376530;19;20077;-72
2024/02/13 07:15:32;;;;;;;9.93;3.47;;;6.00;1.00;;;;;;7375797;19;20012;-72
2024/02/13 07:18:03;;;;;;;9.95;4.15;;;6.00;1.00;;;;;;7375540;19;20019;-72
2024/02/13 07:20:34;;;;;;;6.50;3.40;;;6.00;1.00;;;;;;7376905;19;20013;-71
2024/02/13 07:23:05;;;;;;;6.20;3.25;;;6.10;1.00;;;;;;7376881;19;20015;-72
2024/02/13 07:25:36;;;;;;;8.02;3.65;;;6.10;1.00;;;;;;7375965;19;20011;-71
2024/02/13 07:28:07;;;;;;;7.32;3.10;;;6.10;1.00;;;;;;7376193;19;20024;-71
2024/02/13 07:30:40;;;;;;;7.78;2.78;;;6.10;1.00;;;;;;7375598;19;20018;-71
2024/02/13 07:33:12;;;;;;;6.35;2.90;;;6.20;1.00;;;;;;7377358;19;20715;-71
2024/02/13 07:35:42;;;;;;;7.30;2.80;;;6.20;1.00;;;;;;7375738;19;20467;-72
2024/02/13 07:38:13;;;;;;;6.53;3.03;;;6.30;1.00;;;;;;7379152;19;20011;-71
2024/02/13 07:40:44;;;;;;;10.02;3.05;;;6.30;1.00;;;;;;7378484;19;20008;-70
2024/02/13 07:43:15;;;;;;;5.53;2.78;;;6.30;1.00;;;;;;7376812;19;20010;-71
2024/02/13 07:45:48;;;;;;;8.43;3.42;;;6.40;1.00;;;;;;7378396;19;20044;-73
2024/02/13 07:48:36;;;;;;;5.15;2.60;;;6.50;1.00;;;;;;6867623;19;2004632;-71
2024/02/13 07:51:07;;;;;;;5.95;2.58;;;6.50;1.00;;;;;;7377396;19;20010;-71
2024/02/13 07:53:37;;;;;;;8.18;2.78;;;6.50;1.00;;;;;;7376371;19;20032;-71
2024/02/13 07:56:10;;;;;;;6.75;2.60;;;6.40;1.00;;;;;;7375896;19;20312;-71
2024/02/13 07:58:41;;;;;;;5.38;2.80;;;6.50;1.00;;;;;;7379070;19;20019;-72
2024/02/13 08:01:14;;;;;;;7.68;2.85;;;6.50;1.00;;;;;;7376976;19;20014;-71
2024/02/13 08:03:45;;;;;;;7.00;2.80;;;6.50;1.00;;;;;;7378111;19;20032;-71
2024/02/13 08:06:15;;;;;;;6.68;2.88;;;6.60;1.00;;;;;;7377625;19;20518;-71
2024/02/13 08:08:46;;;;;;;7.50;2.75;;;6.60;1.00;;;;;;7377488;19;20010;-71
2024/02/13 08:11:16;;;;;;;9.20;2.80;;;6.60;1.00;;;;;;7377026;19;20026;-71
2024/02/13 08:13:47;;;;;;;7.35;2.45;;;6.70;1.00;;;;;;7376578;19;20011;-71
2024/02/13 08:16:22;;;;;;;7.82;2.55;;;6.80;1.00;;;;;;7378398;19;20010;-71
2024/02/13 08:18:52;;;;;;;10.10;3.50;;;6.80;1.00;;;;;;7387578;19;20010;-71
2024/02/13 08:21:23;;;;;;;9.30;3.03;;;6.90;1.00;;;;;;7381618;19;20014;-72
2024/02/13 08:23:53;;;;;;;6.45;3.15;;;7.00;1.00;;;;;;7377350;19;20022;-71
2024/02/13 08:26:23;;;;;;;6.50;2.58;;;7.00;1.00;;;;;;7375916;19;20561;-71
2024/02/13 08:28:54;;;;;;;7.63;2.63;;;7.00;1.00;;;;;;7374808;19;20014;-72
2024/02/13 08:31:27;;;;;;;6.80;3.20;;;7.00;1.00;;;;;;7371612;19;20010;-71
2024/02/13 08:33:58;;;;;;;10.10;3.40;;;7.20;1.00;;;;;;7374030;19;20010;-71
2024/02/13 08:36:29;;;;;;;12.85;2.90;;;7.20;1.00;;;;;;7374086;19;20006;-72
2024/02/13 08:39:00;;;;;;;13.40;2.83;;;7.40;1.00;;;;;;7377024;19;20014;-72
2024/02/13 08:41:31;;;;;;;7.28;3.47;;;7.50;1.00;;;;;;7376090;19;20014;-71
2024/02/13 08:44:02;;;;;;;5.28;2.10;;;7.70;1.00;;;;;;7375273;19;20010;-72
2024/02/13 08:46:35;;;;;;;5.95;2.65;;;7.50;1.00;;;;;;7375045;19;20018;-72
2024/02/13 08:49:06;;;;;;;10.93;3.70;;;7.70;1.00;;;;;;7377008;19;20007;-72
2024/02/13 08:51:36;;;;;;;6.38;2.95;;;7.80;1.00;;;;;;7377344;19;20052;-71
2024/02/13 08:54:11;;;;;;;13.52;3.63;;;7.70;1.00;;;;;;7376422;19;20511;-72
2024/02/13 08:56:42;;;;;;;14.27;2.13;;;7.80;1.00;;;;;;7375727;19;20014;-73
2024/02/13 08:59:12;;;;;;;8.68;2.85;;;7.70;1.00;;;;;;7376390;19;20107;-72
2024/02/13 09:01:45;;;;;;;11.20;3.17;;;7.80;1.00;;;;;;7378694;19;20010;-72
2024/02/13 09:04:15;;;;;;;7.93;2.17;;;7.80;1.00;;;;;;7375126;19;20078;-72
2024/02/13 09:06:45;;;;;;;8.38;2.42;;;7.80;1.00;;;;;;7377457;19;20478;-70
2024/02/13 09:09:15;;;;;;;6.25;2.38;;;7.90;1.00;;;;;;7376992;19;20006;-71
2024/02/13 09:11:46;;;;;;;7.00;2.47;;;8.00;1.00;;;;;;7376234;19;20010;-72
2024/02/13 09:14:16;;;;;;;7.35;2.50;;;8.20;1.00;;;;;;7372477;19;20015;-71
2024/02/13 09:16:50;;;;;;;9.07;3.42;;;8.30;1.00;;;;;;7373152;19;20007;-71
2024/02/13 09:19:20;;;;;;;6.72;1.98;;;8.40;1.00;;;;;;7374847;19;20094;-71
2024/02/13 09:21:51;;;;;;;5.65;2.55;;;8.50;1.00;;;;;;7375389;19;20003;-71
2024/02/13 09:24:23;;;;;;;8.77;2.20;;;8.70;1.00;;;;;;7373336;19;20526;-72
2024/02/13 09:26:53;;;;;;;6.43;2.33;;;8.70;1.00;;;;;;7375289;19;20030;-72
2024/02/13 09:29:24;;;;;;;5.32;1.88;;;8.80;1.00;;;;;;7375424;19;20094;-72
2024/02/13 09:31:57;;;;;;;12.52;2.75;;;9.00;1.00;;;;;;7373505;19;20339;-72
2024/02/13 09:34:28;;;;;;;29.17;19.23;;;9.30;1.00;;;;;;7373053;19;20060;-71
2024/02/13 09:36:59;;;;;;;5.10;3.00;;;9.60;1.00;;;;;;7373826;19;20010;-72
2024/02/13 09:39:29;;;;;;;7.28;2.50;;;9.50;1.00;;;;;;7372924;19;20566;-72
2024/02/13 09:42:00;;;;;;;4.53;2.22;;;9.70;1.00;;;;;;7376518;19;20090;-72
2024/02/13 09:44:31;;;;;;;9.50;2.55;;;9.60;1.00;;;;;;7379736;19;20027;-72
2024/02/13 09:47:05;;;;;;;4.72;1.83;;;9.40;1.00;;;;;;7380096;19;20018;-72
2024/02/13 09:49:38;;;;;;;5.03;1.95;;;9.50;1.00;;;;;;7382433;19;20010;-71
2024/02/13 09:52:16;;;;;;;8.55;2.67;;;9.60;1.00;;;;;;7378691;19;20313;-71
2024/02/13 09:54:47;;;;;;;9.25;2.00;;;9.50;1.00;;;;;;7381549;19;20015;-71
2024/02/13 09:57:17;;;;;;;7.95;2.38;;;9.60;1.00;;;;;;7379752;19;20070;-71
2024/02/13 09:59:47;;;;;;;4.45;1.90;;;9.50;1.00;;;;;;7382114;19;20021;-71
2024/02/13 10:02:23;;;;;;;5.53;1.80;;;9.60;1.00;;;;;;7380410;19;20010;-71
2024/02/13 10:04:53;;;;;;;7.75;2.10;;;9.30;1.00;;;;;;7380184;19;20006;-71
2024/02/13 10:07:24;;;;;;;6.20;1.73;;;9.70;1.00;;;;;;7379875;19;20447;-71
2024/02/13 10:09:55;;;;;;;9.90;1.77;;;10.00;1.00;;;;;;7380265;19;20542;-72
2024/02/13 10:12:25;;;;;;;5.28;1.70;;;10.10;1.00;;;;;;7378661;19;20010;-73
2024/02/13 10:15:00;;;;;;;4.72;1.80;;;10.00;1.00;;;;;;7378525;19;20370;-70
2024/02/13 10:17:36;;;;;;;5.95;1.73;;;10.40;1.00;;;;;;7380320;19;20043;-70
2024/02/13 10:20:10;;;;;;;5.00;2.00;;;10.70;1.00;;;;;;7378982;19;20021;-71
2024/02/13 10:22:46;;;;;;;4.78;2.10;;;10.90;1.00;;;;;;7381138;19;20010;-71
2024/02/13 10:25:21;;;;;;;4.47;1.60;;;10.00;1.00;;;;;;7373192;19;20007;-71
2024/02/13 10:27:55;;;;;;;6.32;1.60;;;10.20;1.00;;;;;;7380292;19;20458;-71
2024/02/13 10:30:27;;;;;;;6.20;2.00;;;9.70;1.00;;;;;;7381685;19;20007;-71
2024/02/13 10:33:01;;;;;;;4.38;1.80;;;9.90;1.00;;;;;;7378194;19;20014;-71
2024/02/13 10:35:32;;;;;;;;;;;9.60;1.00;;;;;;7379749;19;20019;-71
2024/02/13 10:38:03;;;;;;;6.30;2.03;;;9.50;1.00;;;;;;7379389;19;19942;-71
2024/02/13 10:40:35;;;;;;;4.90;2.22;;;9.50;1.00;;;;;;7380044;19;20471;-72
2024/02/13 10:43:06;;;;;;;3.83;1.77;;;9.70;1.00;;;;;;7378528;19;20006;-71
2024/02/13 10:45:38;;;;;;;6.22;1.80;;;9.50;1.00;;;;;;7380167;19;20029;-72
2024/02/13 10:48:25;;;;;;;6.35;1.92;;;9.50;1.00;;;;;;7380776;19;20013;-72
2024/02/13 10:50:57;;;;;;;9.05;1.80;;;9.20;1.00;;;;;;7380253;19;20010;-72
2024/02/13 10:53:29;;;;;;;7.88;1.80;;;8.90;1.00;;;;;;7379793;19;20021;-72
2024/02/13 10:56:01;;;;;;;5.80;2.08;;;8.70;1.00;;;;;;7377522;19;20410;-72
2024/02/13 10:58:33;;;;;;;6.05;1.80;;;8.90;1.00;;;;;;7379853;19;20007;-71
2024/02/13 11:01:05;;;;;;;4.05;2.30;;;9.00;1.00;;;;;;7380484;19;20011;-71
2024/02/13 11:03:39;;;;;;;9.32;2.80;;;9.30;1.00;;;;;;7377666;19;20030;-71
2024/02/13 11:06:10;;;;;;;8.65;2.40;;;9.10;1.00;;;;;;7379147;19;20475;-71
2024/02/13 11:08:41;;;;;;;5.72;2.20;;;9.20;1.00;;;;;;7379090;19;20034;-71
2024/02/13 11:11:20;;;;;;;4.45;2.13;;;9.60;1.00;;;;;;7380827;19;20030;-71
2024/02/13 11:13:52;;;;;;;6.32;3.08;;;9.50;1.00;;;;;;7374214;19;20145;-70
2024/02/13 11:16:22;;;;;;;9.13;2.95;;;9.30;1.00;;;;;;7377493;19;20106;-71
2024/02/13 11:19:15;;;;;;;8.23;2.20;;;9.80;1.00;;;;;;6870424;19;2003896;-72
2024/02/13 11:21:45;;;;;;;5.88;1.85;;;9.70;1.00;;;;;;7379324;19;20021;-72
2024/02/13 11:24:44;;;;;;;8.23;1.60;;;9.70;1.00;;;;;;7374485;19;20003;-72
2024/02/13 11:27:17;;;;;;;5.43;1.65;;;10.00;1.00;;;;;;7381119;19;20027;-73
2024/02/13 11:30:00;;;;;;;4.50;1.47;;;9.70;1.00;;;;;;7377396;19;20428;-72
2024/02/13 11:32:37;;;;;;;6.25;1.83;;;10.00;1.00;;;;;;7378118;19;20279;-72
2024/02/13 11:35:17;;;;;;;3.42;1.77;;;10.40;1.00;;;;;;7376360;19;20392;-71
2024/02/13 11:37:48;;;;;;;6.90;1.38;;;10.10;1.00;;;;;;7380590;19;20025;-73
2024/02/13 11:40:22;;;;;;;2.20;1.17;;;9.60;1.00;;;;;;7379181;19;20739;-72
2024/02/13 11:43:00;;;;;;;2.50;1.20;;;9.40;1.00;;;;;;7376642;19;20378;-71
2024/02/13 11:45:31;;;;;;;3.03;1.38;;;9.60;1.00;;;;;;7378470;19;20006;-71
2024/02/13 11:48:01;;;;;;;6.13;1.70;;;9.60;1.00;;;;;;7378793;19;20014;-72
2024/02/13 11:50:34;;;;;;;5.47;1.23;;;10.00;1.00;;;;;;7377692;19;20533;-72
2024/02/13 11:53:04;;;;;;;8.45;1.42;;;10.20;1.00;;;;;;7377110;19;20760;-71
2024/02/13 11:55:39;;;;;;;2.15;1.20;;;10.20;1.00;;;;;;7375165;19;20015;-71
2024/02/13 11:58:19;;;;;;;2.30;0.90;;;10.40;1.00;;;;;;7379191;19;20092;-71
2024/02/13 12:01:00;;;;;;;4.47;1.42;;;10.10;1.00;;;;;;7377407;19;20026;-72
2024/02/13 12:03:32;;;;;;;4.07;1.40;;;10.00;1.00;;;;;;7373123;19;20014;-71
2024/02/13 12:06:06;;;;;;;3.55;1.10;;;9.90;1.00;;;;;;7377656;19;20010;-72
2024/02/13 12:08:40;;;;;;;2.25;0.98;;;10.00;1.00;;;;;;7377183;19;20014;-71
2024/02/13 12:11:11;;;;;;;5.68;1.38;;;9.90;1.00;;;;;;7376010;19;20014;-71
2024/02/13 12:13:42;;;;;;;4.80;1.60;;;10.20;1.00;;;;;;7375317;19;20014;-72
2024/02/13 12:16:14;;;;;;;2.13;1.02;;;10.40;1.00;;;;;;7376784;19;20015;-71
2024/02/13 12:18:44;;;;;;;4.70;1.40;;;9.80;1.00;;;;;;7377920;19;20118;-72
2024/02/13 12:21:18;;;;;;;4.93;1.42;;;9.70;1.00;;;;;;7378152;19;20006;-71
2024/02/13 12:23:50;;;;;;;5.00;2.00;;;9.70;1.00;;;;;;7376903;19;20412;-72
2024/02/13 12:26:20;;;;;;;6.32;1.50;;;10.30;1.00;;;;;;7376386;19;20072;-71
2024/02/13 12:28:57;;;;;;;4.80;1.67;;;10.20;1.00;;;;;;7377998;19;20393;-71
2024/02/13 12:31:31;;;;;;;3.15;1.58;;;10.00;1.00;;;;;;7376801;19;20116;-71
2024/02/13 12:34:05;;;;;;;2.55;1.42;;;10.20;1.00;;;;;;7374123;19;20033;-71
2024/02/13 12:36:39;;;;;;;9.13;2.22;;;10.40;1.00;;;;;;7374218;19;20482;-72
2024/02/13 12:39:16;;;;;;;3.70;1.52;;;10.50;1.00;;;;;;7378212;19;20777;-72
2024/02/13 12:41:50;;;;;;;1.85;0.95;;;10.40;1.00;;;;;;7373887;19;20035;-71
2024/02/13 12:44:21;;;;;;;1.75;0.88;;;10.40;1.00;;;;;;7374882;19;20026;-71
2024/02/13 12:46:51;;;;;;;3.15;1.10;;;10.30;1.00;;;;;;7374261;19;20105;-72
2024/02/13 12:49:22;;;;;;;2.38;1.13;;;10.10;1.00;;;;;;7377010;19;20038;-71
2024/02/13 12:51:56;;;;;;;4.53;1.40;;;10.30;1.00;;;;;;7375930;19;20007;-72
2024/02/13 12:54:26;;;;;;;3.47;1.10;;;10.60;1.00;;;;;;7373288;19;20002;-72
2024/02/13 12:56:58;;;;;;;1.75;0.80;;;10.50;1.00;;;;;;7374480;19;20014;-72
2024/02/13 12:59:28;;;;;;;2.58;0.90;;;10.10;1.00;;;;;;7375604;19;20021;-71
2024/02/13 13:01:59;;;;;;;1.90;1.02;;;10.40;1.00;;;;;;7377732;19;20017;-72
2024/02/13 13:04:31;;;;;;;1.90;0.73;;;10.50;1.00;;;;;;7375942;19;20014;-72
2024/02/13 13:07:05;;;;;;;3.10;0.90;;;10.40;1.00;;;;;;7376891;19;20011;-72
2024/02/13 13:09:39;;;;;;;2.22;0.90;;;10.00;1.00;;;;;;7376221;19;20130;-72
2024/02/13 13:12:10;;;;;;;1.23;0.80;;;10.50;1.00;;;;;;7376169;19;20463;-71
2024/02/13 13:14:46;;;;;;;3.60;1.13;;;10.30;1.00;;;;;;7375535;19;20312;-71
2024/02/13 13:17:21;;;;;;;1.88;0.80;;;10.40;1.00;;;;;;7382720;19;20014;-72
2024/02/13 13:19:51;;;;;;;;;;;10.10;1.00;;;;;;7389619;19;20007;-72
2024/02/13 13:22:26;;;;;;;3.22;0.90;;;10.00;1.00;;;;;;7387986;19;19910;-71
2024/02/13 13:24:56;;;;;;;3.75;0.70;;;9.90;1.00;;;;;;7379606;19;20351;-72
2024/02/13 13:27:26;;;;;;;3.85;1.17;;;9.90;1.00;;;;;;7384713;19;20480;-71
2024/02/13 13:29:56;;;;;;;4.22;1.00;;;10.00;1.00;;;;;;7382728;19;20447;-72
2024/02/13 13:32:26;;;;;;;3.03;0.80;;;10.00;1.00;;;;;;7385868;19;20647;-70
2024/02/13 13:35:00;;;;;;;3.00;0.82;;;10.00;1.00;;;;;;7378844;19;20154;-71